Time;durP1;ratioP1;P1;durP2;ratioP2;P2;SDS_P1;SDS_P2;PMS_P1;PMS_P2;Temp;Humidity;BMP_temperature;BMP_pressure;BME280_temperature;BME280_humidity;BME280_pressure;Samples;Min_cycle;Max_cycle;Signal;HPM_P1;HPM_P2
2021/11/15 00:00:27;;;;;;;9.90;7.75;;;;;;;;;;3991682;28;10000487;-63
2021/11/15 00:03:00;;;;;;;10.68;7.40;;;;;;;;;;5040230;28;20041;-64
2021/11/15 00:05:31;;;;;;;9.43;7.70;;;;;;;;;;5040772;28;20041;-63
2021/11/15 00:07:57;;;;;;;11.15;8.30;;;;;;;;;;5041658;28;20484;-63
2021/11/15 00:10:23;;;;;;;11.60;8.45;;;;;;;;;;5038725;28;20029;-63
2021/11/15 00:13:01;;;;;;;10.85;8.00;;;;;;;;;;5041468;28;20032;-64
2021/11/15 00:15:29;;;;;;;11.23;8.38;;;;;;;;;;5037766;28;20037;-63
2021/11/15 00:18:00;;;;;;;11.27;8.18;;;;;;;;;;5040039;28;20393;-63
2021/11/15 00:20:27;;;;;;;11.07;8.30;;;;;;;;;;5032950;28;20086;-63
2021/11/15 00:23:02;;;;;;;10.83;7.63;;;;;;;;;;5044695;28;20033;-63
2021/11/15 00:25:28;;;;;;;10.63;8.10;;;;;;;;;;5058722;28;20034;-63
2021/11/15 00:28:02;;;;;;;8.95;7.43;;;;;;;;;;5044604;28;20397;-63
2021/11/15 00:30:28;;;;;;;11.60;8.45;;;;;;;;;;5042858;28;20040;-63
2021/11/15 00:33:03;;;;;;;11.07;8.50;;;;;;;;;;5048611;28;20078;-63
2021/11/15 00:35:28;;;;;;;10.65;8.05;;;;;;;;;;5052906;28;20029;-63
2021/11/15 00:38:03;;;;;;;11.80;8.10;;;;;;;;;;5047744;28;20111;-63
2021/11/15 00:40:29;;;;;;;10.23;7.97;;;;;;;;;;5042944;28;20057;-63
2021/11/15 00:43:04;;;;;;;11.50;8.48;;;;;;;;;;5052648;28;20075;-63
2021/11/15 00:45:30;;;;;;;10.25;7.93;;;;;;;;;;5043289;28;20025;-64
2021/11/15 00:48:05;;;;;;;9.82;7.70;;;;;;;;;;5039846;28;20025;-64
2021/11/15 00:50:32;;;;;;;10.07;8.07;;;;;;;;;;5038193;28;20036;-63
2021/11/15 00:53:04;;;;;;;10.50;8.30;;;;;;;;;;5040765;28;20483;-63
2021/11/15 00:55:31;;;;;;;9.43;7.70;;;;;;;;;;5035635;28;20037;-64
2021/11/15 00:57:57;;;;;;;9.27;7.60;;;;;;;;;;5042501;28;20489;-63
2021/11/15 01:00:26;;;;;;;11.07;7.93;;;;;;;;;;5039998;28;20033;-63
2021/11/15 01:03:07;;;;;;;10.48;8.15;;;;;;;;;;5043912;28;20024;-63
2021/11/15 01:05:35;;;;;;;10.32;8.05;;;;;;;;;;5048064;28;20029;-64
2021/11/15 01:08:00;;;;;;;11.07;8.20;;;;;;;;;;5045216;28;20482;-63
2021/11/15 01:10:27;;;;;;;10.98;8.45;;;;;;;;;;5035465;28;20074;-63
2021/11/15 01:12:52;;;;;;;10.52;8.20;;;;;;;;;;5043662;28;20147;-63
2021/11/15 01:15:22;;;;;;;10.57;8.45;;;;;;;;;;5043542;28;20111;-63
2021/11/15 01:17:52;;;;;;;11.82;8.77;;;;;;;;;;5043887;28;20029;-64
2021/11/15 01:20:29;;;;;;;10.38;7.88;;;;;;;;;;5036244;28;20029;-63
2021/11/15 01:22:54;;;;;;;11.68;8.63;;;;;;;;;;5040168;28;20029;-64
2021/11/15 01:25:21;;;;;;;10.60;8.40;;;;;;;;;;5035525;28;20555;-63
2021/11/15 01:27:53;;;;;;;9.52;7.47;;;;;;;;;;5043780;28;20025;-63
2021/11/15 01:30:20;;;;;;;12.35;8.65;;;;;;;;;;5040856;28;20037;-64
2021/11/15 01:32:55;;;;;;;10.95;8.52;;;;;;;;;;5043469;28;20393;-64
2021/11/15 01:35:23;;;;;;;11.00;8.35;;;;;;;;;;5045366;28;20033;-63
2021/11/15 01:37:55;;;;;;;;;;;;;;;;;;5040549;28;20028;-64
2021/11/15 01:40:24;;;;;;;11.18;8.05;;;;;;;;;;5045529;28;20338;-64
2021/11/15 01:42:52;;;;;;;12.07;8.50;;;;;;;;;;5047520;28;20025;-63
2021/11/15 01:45:23;;;;;;;11.52;8.45;;;;;;;;;;5039944;28;20083;-64
2021/11/15 01:47:57;;;;;;;14.05;8.50;;;;;;;;;;5045151;28;20029;-63
2021/11/15 01:50:24;;;;;;;12.70;9.20;;;;;;;;;;5042449;28;20033;-63
2021/11/15 01:52:57;;;;;;;13.20;9.73;;;;;;;;;;5036937;28;20095;-63
2021/11/15 01:55:24;;;;;;;12.05;8.90;;;;;;;;;;5039265;28;20382;-64
2021/11/15 01:57:57;;;;;;;11.68;8.90;;;;;;;;;;5038667;28;20112;-64
2021/11/15 02:00:28;;;;;;;12.27;9.90;;;;;;;;;;5039320;28;20090;-64
2021/11/15 02:02:54;;;;;;;12.27;9.25;;;;;;;;;;5044401;28;20025;-64
2021/11/15 02:05:20;;;;;;;12.05;9.13;;;;;;;;;;5039132;28;20048;-64
2021/11/15 02:07:45;;;;;;;12.52;8.77;;;;;;;;;;5037617;28;20381;-64
2021/11/15 02:10:12;;;;;;;12.30;9.15;;;;;;;;;;5037998;28;20060;-64
2021/11/15 02:12:37;;;;;;;12.18;9.45;;;;;;;;;;5039053;28;20025;-64
2021/11/15 02:15:05;;;;;;;12.73;8.85;;;;;;;;;;5043659;28;20088;-63
2021/11/15 02:17:31;;;;;;;13.18;9.70;;;;;;;;;;5041705;28;20032;-64
2021/11/15 02:20:04;;;;;;;13.77;9.60;;;;;;;;;;5037901;28;20030;-64
2021/11/15 02:22:29;;;;;;;13.07;9.40;;;;;;;;;;5037307;28;20029;-63
2021/11/15 02:24:55;;;;;;;12.95;8.85;;;;;;;;;;5036703;28;20090;-63
2021/11/15 02:27:20;;;;;;;12.05;9.35;;;;;;;;;;5035691;28;20509;-63
2021/11/15 02:29:45;;;;;;;13.15;9.38;;;;;;;;;;5029058;28;20890;-63
2021/11/15 02:32:12;;;;;;;13.10;9.65;;;;;;;;;;5034895;28;20044;-63
2021/11/15 02:34:38;;;;;;;12.75;9.65;;;;;;;;;;5036313;28;20040;-64
2021/11/15 02:37:04;;;;;;;14.40;10.15;;;;;;;;;;5035451;28;20030;-64
2021/11/15 02:39:29;;;;;;;13.23;9.98;;;;;;;;;;5032325;28;20060;-64
2021/11/15 02:41:54;;;;;;;14.30;9.95;;;;;;;;;;5034975;28;20057;-63
2021/11/15 02:44:20;;;;;;;16.25;10.43;;;;;;;;;;5036095;28;20041;-63
2021/11/15 02:46:46;;;;;;;14.23;9.55;;;;;;;;;;5033361;28;20041;-64
2021/11/15 02:49:11;;;;;;;14.57;10.70;;;;;;;;;;5035954;28;20055;-64
2021/11/15 02:51:37;;;;;;;15.13;10.63;;;;;;;;;;5035183;28;20044;-63
2021/11/15 02:54:02;;;;;;;15.93;11.00;;;;;;;;;;5036189;28;20082;-64
2021/11/15 02:56:30;;;;;;;15.95;11.00;;;;;;;;;;5038126;28;20082;-64
2021/11/15 02:58:56;;;;;;;16.00;11.15;;;;;;;;;;5038825;28;20818;-63
2021/11/15 03:01:23;;;;;;;17.13;11.85;;;;;;;;;;5038425;28;20025;-63
2021/11/15 03:04:00;;;;;;;16.40;11.57;;;;;;;;;;5037863;28;20024;-64
2021/11/15 03:06:32;;;;;;;16.40;11.35;;;;;;;;;;5038979;28;20159;-64
2021/11/15 03:09:00;;;;;;;15.45;10.95;;;;;;;;;;5039893;28;20037;-63
2021/11/15 03:11:33;;;;;;;15.65;10.57;;;;;;;;;;5040882;28;20040;-63
2021/11/15 03:14:01;;;;;;;13.80;9.68;;;;;;;;;;5048645;28;20021;-63
2021/11/15 03:16:28;;;;;;;14.57;9.80;;;;;;;;;;5038587;28;20060;-63
2021/11/15 03:19:02;;;;;;;15.40;9.97;;;;;;;;;;5041341;28;20450;-64
2021/11/15 03:21:28;;;;;;;15.50;9.85;;;;;;;;;;5035207;28;20291;-64
2021/11/15 03:23:55;;;;;;;15.13;10.07;;;;;;;;;;5043507;28;20481;-64
2021/11/15 03:26:22;;;;;;;;;;;;;;;;;;5047738;28;20113;-63
2021/11/15 03:29:03;;;;;;;16.10;9.52;;;;;;;;;;5052187;28;19963;-64
2021/11/15 03:31:34;;;;;;;13.77;9.13;;;;;;;;;;5051184;28;20072;-64
2021/11/15 03:34:03;;;;;;;15.20;9.30;;;;;;;;;;5048402;28;20036;-64
2021/11/15 03:36:29;;;;;;;14.88;10.00;;;;;;;;;;5052120;28;20482;-63
2021/11/15 03:39:05;;;;;;;16.27;10.18;;;;;;;;;;5061242;28;20067;-64
2021/11/15 03:41:39;;;;;;;14.60;9.20;;;;;;;;;;5059805;28;20032;-64
2021/11/15 03:44:06;;;;;;;13.75;8.75;;;;;;;;;;5052332;28;20339;-64
2021/11/15 03:46:32;;;;;;;14.40;9.40;;;;;;;;;;5051828;28;20025;-63
2021/11/15 03:49:04;;;;;;;16.58;10.93;;;;;;;;;;5053286;28;20029;-63
2021/11/15 03:51:30;;;;;;;16.27;10.70;;;;;;;;;;5053682;28;20846;-64
2021/11/15 03:53:56;;;;;;;15.23;10.07;;;;;;;;;;5050789;28;20028;-64
2021/11/15 03:56:26;;;;;;;13.63;9.32;;;;;;;;;;5048798;28;20029;-64
2021/11/15 03:59:09;;;;;;;15.35;9.80;;;;;;;;;;5046801;28;20021;-64
2021/11/15 04:01:35;;;;;;;16.00;9.63;;;;;;;;;;5044348;28;20030;-64
2021/11/15 04:04:04;;;;;;;16.27;9.63;;;;;;;;;;5033381;28;21321;-64
2021/11/15 04:06:31;;;;;;;18.25;10.45;;;;;;;;;;5046382;28;20017;-64
2021/11/15 04:09:01;;;;;;;16.30;10.18;;;;;;;;;;5062319;28;20016;-64
2021/11/15 04:11:30;;;;;;;15.90;10.07;;;;;;;;;;5043027;28;20032;-64
2021/11/15 04:14:04;;;;;;;15.77;9.57;;;;;;;;;;5066014;28;20024;-64
2021/11/15 04:16:30;;;;;;;16.00;10.00;;;;;;;;;;5060042;28;20123;-64
2021/11/15 04:19:04;;;;;;;15.90;9.93;;;;;;;;;;5055306;28;20039;-64
2021/11/15 04:21:30;;;;;;;15.65;10.07;;;;;;;;;;5050219;28;20281;-63
2021/11/15 04:23:56;;;;;;;16.08;10.35;;;;;;;;;;5049701;28;20021;-64
2021/11/15 04:26:21;;;;;;;16.67;10.18;;;;;;;;;;5042278;28;20029;-64
2021/11/15 04:28:55;;;;;;;16.85;10.90;;;;;;;;;;5049358;28;20028;-64
2021/11/15 04:31:24;;;;;;;18.00;10.93;;;;;;;;;;5050924;28;20033;-64
2021/11/15 04:33:53;;;;;;;16.35;10.68;;;;;;;;;;5048432;28;20029;-63
2021/11/15 04:36:25;;;;;;;15.70;10.23;;;;;;;;;;5038749;28;20036;-63
2021/11/15 04:38:54;;;;;;;16.90;10.43;;;;;;;;;;5043197;28;20072;-64
2021/11/15 04:41:25;;;;;;;18.67;10.57;;;;;;;;;;5039747;28;20044;-64
2021/11/15 04:43:53;;;;;;;16.73;10.65;;;;;;;;;;5044127;28;20041;-64
2021/11/15 04:46:25;;;;;;;17.00;10.60;;;;;;;;;;5049094;28;20108;-63
2021/11/15 04:48:53;;;;;;;16.42;10.23;;;;;;;;;;5050647;28;20032;-64
2021/11/15 04:51:19;;;;;;;15.20;9.93;;;;;;;;;;5038207;28;20107;-63
2021/11/15 04:53:56;;;;;;;17.40;10.32;;;;;;;;;;5050598;28;20137;-64
2021/11/15 04:56:22;;;;;;;14.15;9.57;;;;;;;;;;5050419;28;20213;-64
2021/11/15 04:58:57;;;;;;;16.55;10.07;;;;;;;;;;5050620;28;20025;-64
2021/11/15 05:01:23;;;;;;;16.45;10.60;;;;;;;;;;5051321;28;20094;-64
2021/11/15 05:03:48;;;;;;;18.70;11.18;;;;;;;;;;5043181;28;20025;-64
2021/11/15 05:06:14;;;;;;;16.98;10.57;;;;;;;;;;5033594;28;20033;-63
2021/11/15 05:08:40;;;;;;;17.17;10.25;;;;;;;;;;5052377;28;20362;-63
2021/11/15 05:11:06;;;;;;;17.45;10.48;;;;;;;;;;5052965;28;20078;-64
2021/11/15 05:13:31;;;;;;;17.35;10.80;;;;;;;;;;5040441;28;20409;-63
2021/11/15 05:15:58;;;;;;;15.73;10.07;;;;;;;;;;5040676;28;20037;-64
2021/11/15 05:18:24;;;;;;;18.80;11.27;;;;;;;;;;5044372;28;20393;-64
2021/11/15 05:20:50;;;;;;;16.35;10.48;;;;;;;;;;5039883;28;20028;-64
2021/11/15 05:23:15;;;;;;;17.95;11.00;;;;;;;;;;5041173;28;20036;-64
2021/11/15 05:25:42;;;;;;;17.05;10.90;;;;;;;;;;5038243;28;20021;-64
2021/11/15 05:28:07;;;;;;;18.60;11.25;;;;;;;;;;5042717;28;20017;-64
2021/11/15 05:30:32;;;;;;;18.98;12.00;;;;;;;;;;5039385;28;20044;-64
2021/11/15 05:32:58;;;;;;;16.67;11.07;;;;;;;;;;5040706;28;20052;-64
2021/11/15 05:35:29;;;;;;;17.35;11.07;;;;;;;;;;5038365;28;20028;-63
2021/11/15 05:37:58;;;;;;;16.80;10.75;;;;;;;;;;5041110;28;20703;-64
2021/11/15 05:43:45;;;;;;;16.85;10.57;;;;;;;;;;5036521;28;20032;-64
2021/11/15 05:46:10;;;;;;;16.30;10.30;;;;;;;;;;5043795;28;20454;-64
2021/11/15 05:48:36;;;;;;;16.10;10.00;;;;;;;;;;5047432;28;20044;-63
2021/11/15 05:51:02;;;;;;;16.85;10.07;;;;;;;;;;5043687;28;20449;-63
2021/11/15 05:53:27;;;;;;;16.60;9.98;;;;;;;;;;5048771;28;20045;-63
2021/11/15 05:55:53;;;;;;;17.90;10.00;;;;;;;;;;5044312;28;20033;-64
2021/11/15 05:58:18;;;;;;;14.90;9.55;;;;;;;;;;5049396;28;20043;-64
2021/11/15 06:00:44;;;;;;;19.08;10.23;;;;;;;;;;5048023;28;20025;-64
2021/11/15 06:03:10;;;;;;;13.32;8.73;;;;;;;;;;5035545;28;20039;-64
2021/11/15 06:05:36;;;;;;;13.23;8.77;;;;;;;;;;5043488;28;20021;-64
2021/11/15 06:08:03;;;;;;;14.15;9.10;;;;;;;;;;5038396;28;20100;-64
2021/11/15 06:10:28;;;;;;;13.10;8.30;;;;;;;;;;5043318;28;20132;-64
2021/11/15 06:12:54;;;;;;;11.60;7.55;;;;;;;;;;5049102;28;20100;-64
2021/11/15 06:15:21;;;;;;;12.02;7.40;;;;;;;;;;5039747;28;20707;-64
2021/11/15 06:17:47;;;;;;;12.35;8.40;;;;;;;;;;5048770;28;20032;-64
2021/11/15 06:20:15;;;;;;;13.70;9.32;;;;;;;;;;5047790;28;20041;-64
2021/11/15 06:22:41;;;;;;;14.32;9.07;;;;;;;;;;5048416;28;20063;-64
2021/11/15 06:25:08;;;;;;;13.23;8.75;;;;;;;;;;5038069;28;20539;-64
2021/11/15 06:27:34;;;;;;;12.05;8.57;;;;;;;;;;5043736;28;20028;-64
2021/11/15 06:30:00;;;;;;;12.88;8.90;;;;;;;;;;5052785;28;20043;-64
2021/11/15 06:32:26;;;;;;;15.15;9.15;;;;;;;;;;5042556;28;20033;-64
2021/11/15 06:34:52;;;;;;;12.70;8.73;;;;;;;;;;5033746;28;20063;-64
2021/11/15 06:37:18;;;;;;;11.27;7.88;;;;;;;;;;5034474;28;20032;-64
2021/11/15 06:39:43;;;;;;;11.55;6.82;;;;;;;;;;5035770;28;20029;-64
2021/11/15 06:42:08;;;;;;;10.98;6.65;;;;;;;;;;5043771;28;20545;-64
2021/11/15 06:44:35;;;;;;;11.45;7.13;;;;;;;;;;5056343;28;20036;-64
2021/11/15 06:47:01;;;;;;;10.50;6.93;;;;;;;;;;5049541;28;20020;-64
2021/11/15 06:49:27;;;;;;;11.57;7.03;;;;;;;;;;5050311;28;20032;-64
2021/11/15 06:51:53;;;;;;;9.18;6.35;;;;;;;;;;5059692;28;20106;-64
2021/11/15 06:54:18;;;;;;;10.75;7.00;;;;;;;;;;5071004;28;20055;-64
2021/11/15 06:56:44;;;;;;;11.43;7.57;;;;;;;;;;5065417;28;20031;-64
2021/11/15 06:59:09;;;;;;;11.07;7.68;;;;;;;;;;5049181;28;20075;-64
2021/11/15 07:01:37;;;;;;;12.40;8.40;;;;;;;;;;5035332;28;20036;-64
2021/11/15 07:04:04;;;;;;;13.35;8.93;;;;;;;;;;5048704;28;20032;-64
2021/11/15 07:06:30;;;;;;;14.75;9.10;;;;;;;;;;5037095;28;20035;-64
2021/11/15 07:08:56;;;;;;;15.07;9.20;;;;;;;;;;5059202;28;20033;-64
2021/11/15 07:11:22;;;;;;;12.88;9.00;;;;;;;;;;5044075;28;20135;-64
2021/11/15 07:13:47;;;;;;;12.60;8.48;;;;;;;;;;5044511;28;20608;-64
2021/11/15 07:16:13;;;;;;;15.18;9.20;;;;;;;;;;5051621;28;20036;-64
2021/11/15 07:18:38;;;;;;;12.70;8.40;;;;;;;;;;5047279;28;20037;-64
2021/11/15 07:21:04;;;;;;;12.73;8.43;;;;;;;;;;5036190;28;20082;-66
2021/11/15 07:23:30;;;;;;;16.02;9.52;;;;;;;;;;5040364;28;20075;-66
2021/11/15 07:25:55;;;;;;;12.45;8.23;;;;;;;;;;5044064;28;20033;-66
2021/11/15 07:28:22;;;;;;;14.00;9.15;;;;;;;;;;5041983;28;20037;-66
2021/11/15 07:30:48;;;;;;;13.77;8.87;;;;;;;;;;4342984;28;10000816;-66
2021/11/15 07:33:15;;;;;;;14.32;9.45;;;;;;;;;;5043125;28;20033;-65
2021/11/15 07:35:42;;;;;;;13.95;9.02;;;;;;;;;;5036808;28;20088;-64
2021/11/15 07:38:08;;;;;;;14.75;8.82;;;;;;;;;;5043072;28;20398;-65
2021/11/15 07:40:34;;;;;;;12.68;9.02;;;;;;;;;;5033408;28;20044;-65
2021/11/15 07:43:00;;;;;;;14.25;9.25;;;;;;;;;;5036812;28;21198;-65
2021/11/15 07:45:26;;;;;;;15.70;10.00;;;;;;;;;;5031509;28;20366;-65
2021/11/15 07:47:51;;;;;;;17.45;10.30;;;;;;;;;;5029656;28;20025;-65
2021/11/15 07:50:17;;;;;;;15.30;10.30;;;;;;;;;;5028414;28;20107;-65
2021/11/15 07:52:43;;;;;;;13.65;9.52;;;;;;;;;;5029675;28;20501;-65
2021/11/15 07:55:13;;;;;;;14.50;9.60;;;;;;;;;;5039325;28;20044;-65
2021/11/15 07:57:41;;;;;;;14.90;9.32;;;;;;;;;;5039069;28;20033;-64
2021/11/15 08:00:08;;;;;;;13.57;8.95;;;;;;;;;;5039777;28;20482;-64
2021/11/15 08:02:33;;;;;;;12.85;8.80;;;;;;;;;;5040354;28;20036;-64
2021/11/15 08:04:59;;;;;;;11.77;8.43;;;;;;;;;;5038794;28;20033;-64
2021/11/15 08:07:25;;;;;;;11.27;8.30;;;;;;;;;;5038788;28;20120;-65
2021/11/15 08:09:51;;;;;;;12.85;8.27;;;;;;;;;;5036543;28;20089;-64
2021/11/15 08:12:19;;;;;;;11.57;8.20;;;;;;;;;;5038663;28;20018;-64
2021/11/15 08:14:45;;;;;;;10.65;7.72;;;;;;;;;;5040020;28;20021;-64
2021/11/15 08:17:12;;;;;;;13.70;8.75;;;;;;;;;;5035803;28;20033;-64
2021/11/15 08:19:40;;;;;;;10.90;7.32;;;;;;;;;;5040118;28;20028;-65
2021/11/15 08:22:07;;;;;;;11.20;7.65;;;;;;;;;;5038888;28;20028;-65
2021/11/15 08:24:51;;;;;;;;;;;;;;;;;;5038958;28;20147;-65
2021/11/15 08:27:17;;;;;;;12.02;7.32;;;;;;;;;;5035782;28;19920;-65
2021/11/15 08:29:43;;;;;;;12.02;7.88;;;;;;;;;;5039933;28;20083;-65
2021/11/15 08:32:10;;;;;;;11.13;7.15;;;;;;;;;;5045236;28;20024;-65
2021/11/15 08:34:36;;;;;;;10.80;7.40;;;;;;;;;;5045899;28;20017;-65
2021/11/15 08:37:03;;;;;;;11.63;7.80;;;;;;;;;;5046570;28;20757;-65
2021/11/15 08:39:32;;;;;;;12.50;7.97;;;;;;;;;;5038186;28;20025;-65
2021/11/15 08:42:03;;;;;;;11.35;8.07;;;;;;;;;;5035153;28;20041;-65
2021/11/15 08:44:30;;;;;;;15.88;8.50;;;;;;;;;;5033643;28;20033;-65
2021/11/15 08:46:57;;;;;;;11.73;8.17;;;;;;;;;;5040208;28;20037;-65
2021/11/15 08:49:26;;;;;;;11.48;8.57;;;;;;;;;;5034046;28;20310;-65
2021/11/15 08:51:51;;;;;;;11.10;8.02;;;;;;;;;;5037974;28;21113;-65
2021/11/15 08:54:18;;;;;;;9.38;7.03;;;;;;;;;;5039208;28;20032;-64
2021/11/15 08:56:47;;;;;;;9.52;6.63;;;;;;;;;;5038461;28;20033;-65
2021/11/15 08:59:13;;;;;;;9.20;6.57;;;;;;;;;;5038852;28;20166;-65
2021/11/15 09:01:40;;;;;;;9.35;6.35;;;;;;;;;;5035786;28;20474;-65
2021/11/15 09:04:08;;;;;;;8.95;6.22;;;;;;;;;;5035497;28;20029;-65
2021/11/15 09:06:35;;;;;;;8.75;6.55;;;;;;;;;;5042726;28;20029;-65
2021/11/15 09:09:02;;;;;;;9.23;7.13;;;;;;;;;;5039143;28;20029;-65
2021/11/15 09:11:28;;;;;;;;;;;;;;;;;;5038525;28;20037;-65
2021/11/15 09:13:53;;;;;;;11.10;7.47;;;;;;;;;;5039959;28;19927;-65
2021/11/15 09:16:19;;;;;;;11.02;7.40;;;;;;;;;;5042710;28;20867;-65
2021/11/15 09:18:45;;;;;;;10.30;6.82;;;;;;;;;;5033036;28;20041;-64
2021/11/15 09:21:12;;;;;;;11.95;7.10;;;;;;;;;;5039576;28;20049;-64
2021/11/15 09:23:40;;;;;;;7.65;5.65;;;;;;;;;;5040830;28;20040;-64
2021/11/15 09:26:07;;;;;;;10.05;6.20;;;;;;;;;;5038417;28;20096;-65
2021/11/15 09:28:33;;;;;;;7.60;5.78;;;;;;;;;;5037591;28;20029;-65
2021/11/15 09:30:58;;;;;;;10.40;6.55;;;;;;;;;;5041136;28;20029;-65
2021/11/15 09:33:24;;;;;;;8.65;6.38;;;;;;;;;;5024591;28;20083;-65
2021/11/15 09:35:50;;;;;;;10.13;6.60;;;;;;;;;;5031336;28;20052;-65
2021/11/15 09:38:19;;;;;;;10.25;6.57;;;;;;;;;;5037519;28;20025;-65
2021/11/15 09:40:47;;;;;;;10.68;6.32;;;;;;;;;;5033475;28;20029;-64
2021/11/15 09:43:14;;;;;;;9.10;6.40;;;;;;;;;;5025804;28;20086;-65
2021/11/15 09:45:40;;;;;;;9.10;6.43;;;;;;;;;;5041742;28;20021;-64
2021/11/15 09:48:08;;;;;;;9.93;7.05;;;;;;;;;;5043910;28;20031;-65
2021/11/15 09:50:34;;;;;;;12.98;7.68;;;;;;;;;;5037586;28;20029;-64
2021/11/15 09:52:59;;;;;;;9.82;7.20;;;;;;;;;;5040383;28;20051;-65
2021/11/15 09:55:25;;;;;;;8.32;6.63;;;;;;;;;;5041703;28;20036;-64
2021/11/15 09:57:51;;;;;;;14.60;7.38;;;;;;;;;;5044631;28;20142;-64
2021/11/15 10:00:23;;;;;;;12.95;7.40;;;;;;;;;;5043010;28;20033;-65
2021/11/15 10:02:50;;;;;;;9.98;6.90;;;;;;;;;;5044876;28;20052;-64
2021/11/15 10:05:16;;;;;;;9.48;6.05;;;;;;;;;;5049004;28;20017;-65
2021/11/15 10:07:48;;;;;;;9.50;6.68;;;;;;;;;;5050073;28;20108;-65
2021/11/15 10:10:45;;;;;;;9.85;6.63;;;;;;;;;;5044256;28;20029;-65
2021/11/15 10:13:15;;;;;;;12.80;6.75;;;;;;;;;;5035314;28;20143;-65
2021/11/15 10:15:44;;;;;;;10.35;6.90;;;;;;;;;;5040562;28;20378;-65
2021/11/15 10:18:12;;;;;;;12.13;6.55;;;;;;;;;;5037665;28;20039;-65
2021/11/15 10:20:47;;;;;;;12.25;7.10;;;;;;;;;;5040777;28;20047;-65
2021/11/15 10:23:42;;;;;;;12.93;7.50;;;;;;;;;;5046133;28;20025;-65
2021/11/15 10:26:37;;;;;;;12.88;7.10;;;;;;;;;;5033767;28;20104;-65
2021/11/15 10:29:10;;;;;;;11.45;7.18;;;;;;;;;;5026550;28;20041;-65
2021/11/15 10:31:42;;;;;;;10.75;7.28;;;;;;;;;;5040536;28;20552;-66
2021/11/15 10:34:14;;;;;;;11.18;7.28;;;;;;;;;;5047826;28;20397;-66
2021/11/15 10:36:44;;;;;;;11.13;7.43;;;;;;;;;;5040078;28;20037;-65
2021/11/15 10:39:11;;;;;;;11.15;7.25;;;;;;;;;;5038647;28;20028;-65
2021/11/15 10:41:36;;;;;;;12.00;6.90;;;;;;;;;;5041541;28;20737;-65
2021/11/15 10:44:07;;;;;;;11.57;7.15;;;;;;;;;;5041673;28;20036;-65
2021/11/15 10:46:35;;;;;;;10.77;7.10;;;;;;;;;;5042815;28;20083;-65
2021/11/15 10:49:04;;;;;;;11.85;7.28;;;;;;;;;;5047217;28;20033;-65
2021/11/15 10:51:52;;;;;;;14.15;8.48;;;;;;;;;;5040025;28;20045;-66
2021/11/15 10:54:44;;;;;;;15.57;8.23;;;;;;;;;;5040881;28;20031;-65
2021/11/15 10:57:20;;;;;;;13.52;7.47;;;;;;;;;;5048497;28;20031;-65
2021/11/15 11:00:09;;;;;;;13.18;7.85;;;;;;;;;;5048891;28;20029;-65
2021/11/15 11:02:49;;;;;;;14.75;7.68;;;;;;;;;;5039074;28;20028;-65
2021/11/15 11:05:26;;;;;;;11.95;7.50;;;;;;;;;;5066323;28;20351;-65
2021/11/15 11:08:13;;;;;;;13.63;7.65;;;;;;;;;;5054130;28;20462;-65
2021/11/15 11:10:48;;;;;;;11.10;7.40;;;;;;;;;;5038950;28;20033;-65
2021/11/15 11:13:15;;;;;;;12.95;7.13;;;;;;;;;;5053665;28;20095;-65
2021/11/15 11:15:47;;;;;;;15.35;8.20;;;;;;;;;;5050433;28;20489;-65
2021/11/15 11:19:12;;;;;;;13.02;8.05;;;;;;;;;;5064100;28;20038;-65
2021/11/15 11:26:39;;;;;;;16.17;8.50;;;;;;;;;;5042812;28;20350;-65
2021/11/15 11:29:15;;;;;;;14.38;8.55;;;;;;;;;;5039645;28;20083;-66
2021/11/15 11:31:43;;;;;;;13.57;8.82;;;;;;;;;;5043816;28;20108;-66
2021/11/15 11:34:09;;;;;;;14.23;7.72;;;;;;;;;;5049746;28;20086;-65
2021/11/15 11:36:37;;;;;;;14.50;8.25;;;;;;;;;;5054268;28;20425;-65
2021/11/15 11:39:08;;;;;;;13.57;8.75;;;;;;;;;;5062574;28;20119;-65
2021/11/15 11:41:37;;;;;;;14.15;8.63;;;;;;;;;;5051962;28;20037;-65
2021/11/15 11:44:03;;;;;;;14.23;7.90;;;;;;;;;;5064646;28;20035;-65
2021/11/15 11:46:29;;;;;;;14.52;7.97;;;;;;;;;;5072750;28;20078;-66
2021/11/15 11:48:55;;;;;;;13.80;8.43;;;;;;;;;;5045702;28;20033;-65
2021/11/15 11:51:22;;;;;;;16.20;8.40;;;;;;;;;;5054756;28;20028;-65
2021/11/15 11:53:47;;;;;;;15.27;8.73;;;;;;;;;;5070905;28;20136;-65
2021/11/15 11:56:18;;;;;;;15.52;8.20;;;;;;;;;;5052831;28;20476;-65
2021/11/15 11:58:50;;;;;;;14.82;8.48;;;;;;;;;;5044617;28;20025;-66
2021/11/15 12:01:21;;;;;;;14.20;8.65;;;;;;;;;;5049790;28;20060;-66
2021/11/15 12:04:13;;;;;;;13.80;8.57;;;;;;;;;;5044552;28;20025;-65
2021/11/15 12:06:39;;;;;;;13.82;8.68;;;;;;;;;;5050834;28;20085;-65
2021/11/15 12:09:06;;;;;;;17.20;9.07;;;;;;;;;;5060340;28;20029;-66
2021/11/15 12:11:38;;;;;;;15.33;9.07;;;;;;;;;;5038262;28;20029;-65
2021/11/15 12:14:06;;;;;;;14.40;9.10;;;;;;;;;;5054433;28;20135;-65
2021/11/15 12:16:50;;;;;;;;;;;;;;;;;;5041694;28;20021;-65
2021/11/15 12:19:15;;;;;;;14.57;8.10;;;;;;;;;;5030943;28;19978;-66
2021/11/15 12:21:40;;;;;;;14.15;7.97;;;;;;;;;;5040250;28;20447;-66
2021/11/15 12:24:10;;;;;;;12.07;7.38;;;;;;;;;;5032526;28;20086;-65
2021/11/15 12:26:43;;;;;;;10.50;6.78;;;;;;;;;;5048450;28;20021;-65
2021/11/15 12:29:27;;;;;;;9.43;6.72;;;;;;;;;;5042597;28;20116;-66
2021/11/15 12:32:05;;;;;;;12.18;6.80;;;;;;;;;;5044795;28;20071;-66
2021/11/15 12:34:54;;;;;;;8.63;5.72;;;;;;;;;;5056411;28;20087;-66
2021/11/15 12:37:40;;;;;;;10.38;6.40;;;;;;;;;;5052125;28;20040;-66
2021/11/15 12:40:08;;;;;;;10.57;6.40;;;;;;;;;;5050014;28;20053;-66
2021/11/15 12:42:34;;;;;;;;;;;;;;;;;;5058060;28;20040;-66
2021/11/15 12:45:23;;;;;;;8.33;6.10;;;;;;;;;;5052015;28;20340;-66
2021/11/15 12:47:49;;;;;;;8.32;5.63;;;;;;;;;;5054532;28;20021;-66
2021/11/15 12:50:21;;;;;;;11.43;5.63;;;;;;;;;;3652664;28;10000816;-66
2021/11/15 12:52:56;;;;;;;9.27;5.85;;;;;;;;;;5036464;28;20079;-66
2021/11/15 12:55:23;;;;;;;13.05;5.82;;;;;;;;;;5040776;28;20028;-65
2021/11/15 12:57:54;;;;;;;10.38;5.93;;;;;;;;;;5032740;28;20018;-66
2021/11/15 13:00:29;;;;;;;8.35;5.57;;;;;;;;;;5042282;28;20025;-66
2021/11/15 13:02:58;;;;;;;9.43;5.95;;;;;;;;;;5039474;28;20025;-66
2021/11/15 13:05:25;;;;;;;8.55;5.70;;;;;;;;;;5040517;28;20087;-66
2021/11/15 13:07:53;;;;;;;9.70;5.40;;;;;;;;;;5040500;28;20036;-66
2021/11/15 13:10:20;;;;;;;;;;;;;;;;;;5060141;28;19994;-66
2021/11/15 13:12:45;;;;;;;;;;;;;;;;;;5032975;28;20318;-65
2021/11/15 13:15:11;;;;;;;;;;;;;;;;;;5036906;28;19960;-66
2021/11/15 13:17:36;;;;;;;;;;;;;;;;;;5030555;28;20416;-66
2021/11/15 13:20:04;;;;;;;;;;;;;;;;;;5039235;28;19917;-66
2021/11/15 13:22:30;;;;;;;;;;;;;;;;;;5049941;28;20448;-66
2021/11/15 13:24:55;;;;;;;;;;;;;;;;;;5050153;28;20007;-66
2021/11/15 13:27:22;;;;;;;;;;;;;;;;;;5038364;28;20000;-66
2021/11/15 13:29:49;;;;;;;;;;;;;;;;;;5050977;28;19912;-66
2021/11/15 13:32:14;;;;;;;;;;;;;;;;;;5043314;28;19969;-66
2021/11/15 13:34:41;;;;;;;;;;;;;;;;;;5053550;28;20438;-66
2021/11/15 13:37:08;;;;;;;;;;;;;;;;;;5033526;28;20271;-66
2021/11/15 13:39:34;;;;;;;7.28;5.22;;;;;;;;;;5044317;28;19913;-66
2021/11/15 13:42:01;;;;;;;9.02;5.88;;;;;;;;;;5052214;28;20035;-66
2021/11/15 13:44:27;;;;;;;9.18;5.78;;;;;;;;;;5054348;28;20032;-66
2021/11/15 13:46:52;;;;;;;9.10;5.55;;;;;;;;;;5045321;28;20044;-65
2021/11/15 13:49:18;;;;;;;9.07;6.05;;;;;;;;;;5041332;28;20021;-66
2021/11/15 13:51:43;;;;;;;9.07;5.55;;;;;;;;;;5051016;28;20373;-66
2021/11/15 13:54:10;;;;;;;7.63;5.78;;;;;;;;;;5049171;28;20029;-66
2021/11/15 13:56:36;;;;;;;12.05;6.53;;;;;;;;;;5040511;28;20037;-65
2021/11/15 13:59:03;;;;;;;12.10;6.55;;;;;;;;;;5034525;28;20033;-66
2021/11/15 14:01:28;;;;;;;10.73;6.03;;;;;;;;;;5035167;28;20056;-66
2021/11/15 14:03:54;;;;;;;9.07;5.82;;;;;;;;;;5036934;28;20517;-66
2021/11/15 14:06:20;;;;;;;9.38;5.90;;;;;;;;;;5050190;28;20021;-66
2021/11/15 14:08:45;;;;;;;8.48;5.70;;;;;;;;;;5050761;28;20034;-66
2021/11/15 14:11:12;;;;;;;9.63;5.80;;;;;;;;;;5047420;28;20024;-66
2021/11/15 14:13:38;;;;;;;7.28;4.85;;;;;;;;;;5038645;28;20504;-66
2021/11/15 14:16:05;;;;;;;8.70;5.15;;;;;;;;;;5041828;28;20114;-66
2021/11/15 14:18:30;;;;;;;8.75;5.20;;;;;;;;;;5043507;28;20091;-66
2021/11/15 14:20:56;;;;;;;9.05;5.63;;;;;;;;;;5047787;28;20544;-66
2021/11/15 14:23:22;;;;;;;9.63;5.07;;;;;;;;;;5039526;28;20033;-66
2021/11/15 14:25:49;;;;;;;8.25;5.35;;;;;;;;;;5042579;28;20029;-66
2021/11/15 14:28:18;;;;;;;8.65;5.15;;;;;;;;;;4341463;28;10000832;-65
2021/11/15 14:30:44;;;;;;;8.35;4.97;;;;;;;;;;5032807;28;20039;-65
2021/11/15 14:33:10;;;;;;;9.83;5.20;;;;;;;;;;5033629;28;20029;-65
2021/11/15 14:35:38;;;;;;;6.93;4.95;;;;;;;;;;5043145;28;20279;-64
2021/11/15 14:38:04;;;;;;;7.90;5.43;;;;;;;;;;5038585;28;20029;-64
2021/11/15 14:40:30;;;;;;;7.35;4.60;;;;;;;;;;5042772;28;20052;-65
2021/11/15 14:42:56;;;;;;;8.75;5.53;;;;;;;;;;5044936;28;20063;-65
2021/11/15 14:45:21;;;;;;;7.93;5.00;;;;;;;;;;5041317;28;20082;-65
2021/11/15 14:47:47;;;;;;;8.60;5.05;;;;;;;;;;5042930;28;20025;-65
2021/11/15 14:50:12;;;;;;;10.15;5.28;;;;;;;;;;5038541;28;20537;-65
2021/11/15 14:52:39;;;;;;;6.43;4.45;;;;;;;;;;5043546;28;20037;-65